Time;durP1;ratioP1;P1;durP2;ratioP2;P2;SDS_P1;SDS_P2;PMS_P1;PMS_P2;Temp;Humidity;BMP_temperature;BMP_pressure;BME280_temperature;BME280_humidity;BME280_pressure;Samples;Min_cycle;Max_cycle;Signal;HPM_P1;HPM_P2
2022/06/08 00:02:15;;;;;;;28.92;21.52;;;15.90;99.90;;;;;;5008532;28;25081;-75
2022/06/08 00:04:41;;;;;;;35.08;23.65;;;15.90;99.90;;;;;;5007875;28;25074;-75
2022/06/08 00:07:07;;;;;;;29.02;21.42;;;16.00;99.90;;;;;;5010954;28;25078;-75
2022/06/08 00:09:33;;;;;;;31.90;23.13;;;15.90;99.90;;;;;;5015330;28;25081;-75
2022/06/08 00:12:00;;;;;;;26.83;21.77;;;16.00;99.90;;;;;;5014052;28;25086;-75
2022/06/08 00:14:25;;;;;;;33.90;23.73;;;15.90;99.90;;;;;;5014904;28;25056;-75
2022/06/08 00:16:51;;;;;;;33.35;25.00;;;15.90;99.90;;;;;;5012694;28;25103;-76
2022/06/08 00:19:17;;;;;;;31.25;25.08;;;15.90;99.90;;;;;;5017553;28;25151;-75
2022/06/08 00:21:42;;;;;;;46.30;26.90;;;15.90;99.90;;;;;;5020560;28;25121;-74
2022/06/08 00:24:08;;;;;;;32.35;25.17;;;15.90;99.90;;;;;;5008639;28;25059;-74
2022/06/08 00:26:36;;;;;;;38.35;27.73;;;16.00;99.90;;;;;;5013691;28;25056;-75
2022/06/08 00:29:02;;;;;;;29.75;23.23;;;16.00;99.90;;;;;;5011954;28;25086;-76
2022/06/08 00:31:27;;;;;;;38.88;26.90;;;16.00;99.90;;;;;;5016215;28;25109;-76
2022/06/08 00:33:53;;;;;;;35.83;26.55;;;16.10;99.90;;;;;;5000233;28;25080;-76
2022/06/08 00:36:19;;;;;;;36.13;27.42;;;16.10;99.90;;;;;;5010599;28;25064;-75
2022/06/08 00:38:44;;;;;;;36.58;27.15;;;16.10;99.90;;;;;;5004632;28;25073;-75
2022/06/08 00:41:25;;;;;;;37.80;27.92;;;15.90;99.90;;;;;;5018945;28;25053;-75
2022/06/08 00:43:51;;;;;;;35.15;27.00;;;15.90;99.90;;;;;;5012017;28;25055;-75
2022/06/08 00:46:17;;;;;;;38.10;28.25;;;16.00;99.90;;;;;;5007278;28;25150;-77
2022/06/08 00:48:47;;;;;;;39.42;28.95;;;15.90;99.90;;;;;;5018385;28;25153;-75
2022/06/08 00:51:14;;;;;;;38.22;27.77;;;15.90;99.90;;;;;;5015325;28;25063;-75
2022/06/08 00:53:54;;;;;;;34.85;25.52;;;15.90;99.90;;;;;;5015602;28;25047;-75
2022/06/08 00:56:25;;;;;;;32.60;25.77;;;15.90;99.90;;;;;;5015812;28;25070;-74
2022/06/08 00:58:51;;;;;;;34.25;25.75;;;15.90;99.90;;;;;;5015993;28;25056;-76
2022/06/08 01:01:17;;;;;;;39.60;28.00;;;15.90;99.90;;;;;;5013603;28;25056;-76
2022/06/08 01:03:43;;;;;;;33.55;25.65;;;16.00;99.90;;;;;;5012822;28;25055;-76
2022/06/08 01:06:19;;;;;;;33.67;25.83;;;16.00;99.90;;;;;;5010060;28;25074;-76
2022/06/08 01:08:48;;;;;;;29.50;24.15;;;15.90;99.90;;;;;;5016171;28;25089;-76
2022/06/08 01:11:39;;;;;;;32.83;24.85;;;16.00;99.90;;;;;;5009581;28;25094;-75
2022/06/08 01:14:10;;;;;;;29.98;24.08;;;16.00;99.90;;;;;;5006387;28;25116;-75
2022/06/08 01:16:39;;;;;;;33.08;25.65;;;16.00;99.90;;;;;;5012603;28;25065;-75
2022/06/08 01:19:07;;;;;;;37.83;28.25;;;15.90;99.90;;;;;;5015245;28;25127;-76
2022/06/08 01:21:32;;;;;;;32.88;25.65;;;15.80;99.90;;;;;;5003583;28;25071;-77
2022/06/08 01:24:01;;;;;;;35.75;25.98;;;15.70;99.90;;;;;;5011412;28;25130;-76
2022/06/08 01:26:53;;;;;;;31.50;23.90;;;15.60;99.90;;;;;;5025142;28;25094;-75
2022/06/08 01:29:29;;;;;;;31.90;24.23;;;15.70;99.90;;;;;;5018864;28;25058;-77
2022/06/08 01:32:20;;;;;;;34.83;24.95;;;15.60;99.90;;;;;;5012957;28;25068;-75
2022/06/08 01:35:23;;;;;;;35.78;26.70;;;15.50;99.90;;;;;;5017962;28;25141;-75
2022/06/08 01:38:10;;;;;;;35.88;26.60;;;15.40;99.90;;;;;;5018741;28;25076;-76
2022/06/08 01:40:54;;;;;;;38.83;28.00;;;15.30;99.90;;;;;;5019002;28;25052;-76
2022/06/08 01:43:39;;;;;;;32.42;24.27;;;15.30;99.90;;;;;;5009554;28;25078;-76
2022/06/08 01:46:23;;;;;;;36.72;26.48;;;15.30;99.90;;;;;;5012955;28;25084;-75
2022/06/08 01:49:07;;;;;;;27.63;22.13;;;15.30;99.90;;;;;;5009595;28;25146;-76
2022/06/08 01:51:55;;;;;;;33.38;24.50;;;15.30;99.90;;;;;;5006950;28;25102;-75
2022/06/08 01:54:40;;;;;;;36.80;26.13;;;15.30;99.90;;;;;;5017927;28;25078;-75
2022/06/08 01:57:24;;;;;;;31.40;24.20;;;15.30;99.90;;;;;;5008273;28;25063;-75
2022/06/08 02:00:14;;;;;;;37.10;25.75;;;15.30;99.90;;;;;;5010760;28;25088;-76
2022/06/08 02:02:45;;;;;;;32.58;25.45;;;15.30;99.90;;;;;;5013065;28;25068;-74
2022/06/08 02:05:42;;;;;;;32.28;26.13;;;15.30;99.90;;;;;;5016701;28;25156;-75
2022/06/08 02:08:32;;;;;;;36.25;26.75;;;15.30;99.90;;;;;;5007430;28;25098;-75
2022/06/08 02:11:08;;;;;;;39.20;26.95;;;15.10;99.90;;;;;;5006091;28;25124;-75
2022/06/08 02:13:55;;;;;;;32.17;23.95;;;15.10;99.90;;;;;;5010503;28;25087;-74
2022/06/08 02:16:29;;;;;;;34.70;24.98;;;15.10;99.90;;;;;;5005748;28;25083;-75
2022/06/08 02:19:00;;;;;;;31.00;23.52;;;15.10;99.90;;;;;;5018654;28;25106;-76
2022/06/08 02:21:47;;;;;;;33.90;26.13;;;15.10;99.90;;;;;;5009365;28;25140;-75
2022/06/08 02:24:26;;;;;;;30.27;21.90;;;15.10;99.90;;;;;;5013635;28;25041;-75
2022/06/08 02:27:02;;;;;;;31.00;23.45;;;15.10;99.90;;;;;;5030410;28;25091;-75
2022/06/08 02:29:43;;;;;;;27.70;22.30;;;15.10;99.90;;;;;;5029405;28;25131;-75
2022/06/08 02:35:12;;;;;;;30.20;23.83;;;15.10;99.90;;;;;;5025069;28;25083;-76
2022/06/08 02:37:39;;;;;;;31.35;24.20;;;15.00;99.90;;;;;;5036724;28;25067;-76
2022/06/08 02:40:14;;;;;;;30.05;22.90;;;15.00;99.90;;;;;;5026827;28;25085;-74
2022/06/08 02:42:44;;;;;;;33.65;23.65;;;15.00;99.90;;;;;;5013581;28;25078;-76
2022/06/08 02:45:27;;;;;;;28.90;21.40;;;15.00;99.90;;;;;;5013717;28;25084;-75
2022/06/08 02:48:05;;;;;;;26.70;21.35;;;15.00;99.90;;;;;;5013385;28;25048;-76
2022/06/08 02:50:32;;;;;;;32.20;21.45;;;15.10;99.90;;;;;;5012384;28;25139;-76
2022/06/08 02:53:18;;;;;;;31.98;21.88;;;15.10;99.90;;;;;;5015162;28;25100;-75
2022/06/08 02:56:18;;;;;;;28.95;21.80;;;15.10;99.90;;;;;;5014772;28;25089;-76
2022/06/08 02:58:59;;;;;;;24.83;19.63;;;15.10;99.90;;;;;;4994514;28;25109;-76
2022/06/08 03:01:36;;;;;;;31.47;21.37;;;15.10;99.90;;;;;;5013821;28;25079;-75
2022/06/08 03:04:10;;;;;;;28.52;21.02;;;15.10;99.90;;;;;;5010864;28;25058;-75
2022/06/08 03:06:49;;;;;;;28.90;21.30;;;15.20;99.90;;;;;;5018776;28;25052;-76
2022/06/08 03:09:17;;;;;;;25.40;20.67;;;15.10;99.90;;;;;;5011335;28;25165;-75
2022/06/08 03:11:46;;;;;;;24.63;19.88;;;15.20;99.90;;;;;;5012784;28;25080;-75
2022/06/08 03:14:15;;;;;;;28.55;20.52;;;15.20;99.90;;;;;;5021525;28;25079;-75
2022/06/08 03:16:52;;;;;;;28.77;21.33;;;15.20;99.90;;;;;;5018741;28;25082;-74
2022/06/08 03:19:18;;;;;;;26.48;19.90;;;15.20;99.90;;;;;;5010180;28;25081;-76
2022/06/08 03:21:45;;;;;;;26.08;19.75;;;15.20;99.90;;;;;;5015639;28;25043;-75
2022/06/08 03:24:11;;;;;;;28.38;18.25;;;15.20;99.90;;;;;;5011784;28;25072;-75
2022/06/08 03:26:47;;;;;;;27.95;19.52;;;15.30;99.90;;;;;;5012613;28;25070;-75
2022/06/08 03:29:12;;;;;;;19.77;15.45;;;15.20;99.90;;;;;;5019282;28;25065;-75
2022/06/08 03:31:38;;;;;;;19.50;15.90;;;15.10;99.90;;;;;;5009592;28;25062;-77
2022/06/08 03:34:03;;;;;;;23.80;15.98;;;15.10;99.90;;;;;;5022062;28;25081;-76
2022/06/08 03:36:29;;;;;;;17.00;13.75;;;15.10;99.90;;;;;;5022508;28;25110;-75
2022/06/08 03:38:55;;;;;;;21.45;15.98;;;15.10;99.90;;;;;;5015256;28;25075;-75
2022/06/08 03:41:20;;;;;;;20.85;14.68;;;15.10;99.90;;;;;;5020007;28;25071;-76
2022/06/08 03:43:46;;;;;;;18.55;14.55;;;15.10;99.90;;;;;;5034704;28;25057;-75
2022/06/08 03:46:12;;;;;;;23.20;14.07;;;15.20;99.90;;;;;;5041905;28;25075;-77
2022/06/08 03:48:39;;;;;;;14.80;12.15;;;15.30;99.90;;;;;;5032205;28;25070;-75
2022/06/08 03:51:07;;;;;;;20.35;13.43;;;15.20;99.90;;;;;;5021170;28;25157;-75
2022/06/08 03:53:40;;;;;;;17.75;13.40;;;15.20;99.90;;;;;;5013530;28;25057;-75
2022/06/08 03:56:07;;;;;;;15.60;12.80;;;15.30;99.90;;;;;;5015766;28;25056;-76
2022/06/08 03:58:33;;;;;;;18.52;13.90;;;15.40;99.90;;;;;;5007538;28;25062;-75
2022/06/08 04:00:59;;;;;;;17.20;13.00;;;15.30;99.90;;;;;;5009327;28;25089;-75
2022/06/08 04:03:25;;;;;;;17.65;12.57;;;15.40;99.90;;;;;;5007656;28;25073;-74
2022/06/08 04:05:51;;;;;;;19.45;13.30;;;15.40;99.90;;;;;;5009463;28;25147;-74
2022/06/08 04:08:16;;;;;;;19.23;12.90;;;15.50;99.90;;;;;;5005131;28;25100;-77
2022/06/08 04:10:42;;;;;;;15.98;13.07;;;15.60;99.90;;;;;;5010316;28;25101;-75
2022/06/08 04:13:08;;;;;;;17.20;13.07;;;15.60;99.90;;;;;;5003982;28;25077;-75
2022/06/08 04:15:42;;;;;;;17.42;13.07;;;15.60;99.90;;;;;;5009813;28;25141;-75
2022/06/08 04:18:13;;;;;;;20.10;13.60;;;15.50;99.90;;;;;;5016383;28;25105;-75
2022/06/08 04:20:39;;;;;;;22.90;14.05;;;15.40;99.90;;;;;;5008379;28;25132;-75
2022/06/08 04:23:05;;;;;;;19.00;12.90;;;15.60;99.90;;;;;;5005449;28;25185;-74
2022/06/08 04:25:30;;;;;;;16.90;12.32;;;15.60;99.90;;;;;;5013264;28;25068;-75
2022/06/08 04:27:57;;;;;;;17.60;13.38;;;15.60;99.90;;;;;;5009702;28;25094;-74
2022/06/08 04:30:23;;;;;;;15.57;12.90;;;15.60;99.90;;;;;;5009413;28;25053;-75
2022/06/08 04:32:49;;;;;;;17.60;13.82;;;15.60;99.90;;;;;;5000623;28;25083;-76
2022/06/08 04:35:16;;;;;;;17.50;12.52;;;15.70;99.90;;;;;;5014858;28;25056;-75
2022/06/08 04:37:42;;;;;;;17.15;13.02;;;15.70;99.90;;;;;;5014732;28;25048;-76
2022/06/08 04:40:11;;;;;;;18.10;12.90;;;15.70;99.90;;;;;;5010377;28;25074;-75
2022/06/08 04:42:38;;;;;;;18.27;12.68;;;15.70;99.90;;;;;;5008525;28;25074;-75
2022/06/08 04:45:06;;;;;;;15.95;11.90;;;15.70;99.90;;;;;;5005617;28;25106;-76
2022/06/08 04:47:32;;;;;;;18.33;11.88;;;15.80;99.90;;;;;;5008515;28;25181;-74
2022/06/08 04:49:58;;;;;;;14.07;10.65;;;15.90;99.90;;;;;;5006090;28;25097;-76
2022/06/08 04:52:24;;;;;;;14.30;11.35;;;15.80;99.90;;;;;;5009645;28;25159;-74
2022/06/08 04:54:50;;;;;;;16.60;12.18;;;15.80;99.90;;;;;;5007154;28;25075;-76
2022/06/08 04:57:16;;;;;;;13.15;10.45;;;15.90;99.90;;;;;;5011364;28;25056;-76
2022/06/08 04:59:41;;;;;;;14.13;10.90;;;15.90;99.90;;;;;;5014264;28;25065;-74
2022/06/08 05:02:08;;;;;;;13.95;11.10;;;16.00;99.90;;;;;;5006681;28;25071;-75
2022/06/08 05:04:34;;;;;;;16.55;10.75;;;16.00;99.90;;;;;;5012905;28;25052;-74
2022/06/08 05:07:00;;;;;;;14.13;10.20;;;16.10;99.90;;;;;;5012473;28;25065;-74
2022/06/08 05:09:27;;;;;;;16.15;11.32;;;16.10;99.90;;;;;;5006270;28;25109;-75
2022/06/08 05:11:53;;;;;;;14.23;10.10;;;16.10;99.90;;;;;;5011982;28;25057;-74
2022/06/08 05:14:18;;;;;;;13.13;9.93;;;16.10;99.90;;;;;;5011579;28;25059;-74
2022/06/08 05:16:44;;;;;;;13.30;9.75;;;16.10;99.90;;;;;;5011667;28;25048;-73
2022/06/08 05:19:10;;;;;;;13.77;10.40;;;16.20;99.90;;;;;;5007433;28;25072;-72
2022/06/08 05:21:37;;;;;;;13.57;9.82;;;16.20;99.90;;;;;;5010779;28;25062;-74
2022/06/08 05:24:03;;;;;;;15.50;10.25;;;16.30;99.90;;;;;;5006189;28;24870;-76
2022/06/08 05:26:29;;;;;;;11.70;9.68;;;16.30;99.90;;;;;;5006784;28;25072;-73
2022/06/08 05:28:55;;;;;;;14.02;9.25;;;16.40;99.90;;;;;;5007299;28;25130;-74
2022/06/08 05:31:20;;;;;;;12.38;10.40;;;16.50;99.90;;;;;;5010020;28;25064;-74
2022/06/08 05:33:46;;;;;;;13.80;10.20;;;16.50;99.90;;;;;;5008300;28;25063;-73
2022/06/08 05:36:12;;;;;;;12.38;9.60;;;16.40;99.90;;;;;;5015287;28;25090;-73
2022/06/08 05:38:37;;;;;;;15.65;10.40;;;16.50;99.90;;;;;;5015703;28;25148;-74
2022/06/08 05:41:03;;;;;;;12.18;9.55;;;16.50;99.90;;;;;;5019923;28;25064;-74
2022/06/08 05:43:29;;;;;;;14.90;11.25;;;16.50;99.90;;;;;;5021546;28;25193;-74
2022/06/08 05:45:55;;;;;;;12.55;9.93;;;16.60;99.90;;;;;;5024878;28;25071;-74
2022/06/08 05:48:21;;;;;;;15.57;10.50;;;16.70;99.90;;;;;;5031024;28;25053;-73
2022/06/08 05:50:47;;;;;;;14.18;11.10;;;16.90;99.90;;;;;;5011110;28;25128;-73
2022/06/08 05:53:13;;;;;;;17.20;10.60;;;17.00;99.90;;;;;;5011874;28;25063;-73
2022/06/08 05:55:40;;;;;;;15.48;10.30;;;17.00;99.90;;;;;;5021814;28;25059;-73
2022/06/08 05:58:05;;;;;;;14.27;9.93;;;17.00;99.90;;;;;;5028518;28;25130;-74
2022/06/08 06:00:35;;;;;;;12.77;9.63;;;16.90;99.90;;;;;;5021608;28;25062;-73
2022/06/08 06:03:01;;;;;;;12.68;9.00;;;16.90;99.90;;;;;;5019937;28;25081;-72
2022/06/08 06:05:30;;;;;;;16.05;9.23;;;16.80;99.90;;;;;;5018273;28;25063;-73
2022/06/08 06:07:56;;;;;;;12.60;8.90;;;16.70;99.90;;;;;;5010555;28;25047;-73
2022/06/08 06:10:23;;;;;;;13.85;9.27;;;16.70;99.90;;;;;;5016503;28;25047;-73
2022/06/08 06:12:51;;;;;;;16.65;9.63;;;16.80;99.90;;;;;;5010978;28;25067;-73
2022/06/08 06:15:17;;;;;;;8.50;7.63;;;16.80;99.90;;;;;;5014968;28;25133;-71
2022/06/08 06:17:42;;;;;;;9.70;7.70;;;16.80;99.90;;;;;;5023400;28;25073;-72
2022/06/08 06:20:09;;;;;;;12.70;8.98;;;16.90;99.90;;;;;;5024250;28;25124;-74
2022/06/08 06:22:35;;;;;;;12.27;8.20;;;17.10;99.90;;;;;;5036475;28;25075;-73
2022/06/08 06:25:02;;;;;;;9.32;7.72;;;17.10;99.90;;;;;;5036168;28;25071;-72
2022/06/08 06:27:28;;;;;;;11.55;7.40;;;17.20;99.90;;;;;;5032568;28;25086;-74
2022/06/08 06:29:54;;;;;;;12.80;7.78;;;17.20;99.90;;;;;;5033220;28;25069;-73
2022/06/08 06:32:26;;;;;;;11.60;7.10;;;17.20;99.90;;;;;;5018344;28;25070;-73
2022/06/08 06:34:52;;;;;;;8.05;6.50;;;17.30;99.90;;;;;;5014142;28;25105;-74
2022/06/08 06:37:18;;;;;;;11.65;7.15;;;17.40;99.90;;;;;;5008986;28;25062;-73
2022/06/08 06:39:44;;;;;;;9.57;6.45;;;17.50;99.90;;;;;;5006699;28;25058;-73
2022/06/08 06:42:15;;;;;;;9.73;5.97;;;17.30;99.90;;;;;;5004828;28;25056;-74
2022/06/08 06:44:41;;;;;;;8.38;6.50;;;17.50;99.90;;;;;;5009327;28;25136;-72
2022/06/08 06:47:07;;;;;;;9.45;6.10;;;17.50;99.90;;;;;;5010411;28;25076;-71
2022/06/08 06:49:32;;;;;;;11.18;6.22;;;17.60;99.90;;;;;;5011295;28;25136;-71
2022/06/08 06:51:58;;;;;;;9.43;5.90;;;17.50;99.90;;;;;;5018279;28;25053;-73
2022/06/08 06:54:24;;;;;;;7.75;6.07;;;17.50;99.90;;;;;;5011497;28;25106;-72
2022/06/08 06:56:50;;;;;;;12.75;7.03;;;17.60;99.90;;;;;;5014728;28;25060;-73
2022/06/08 06:59:15;;;;;;;9.07;6.00;;;17.60;99.90;;;;;;5010708;28;25068;-72
2022/06/08 07:01:41;;;;;;;8.23;6.43;;;17.70;99.90;;;;;;5008460;28;25073;-72
2022/06/08 07:04:08;;;;;;;8.15;5.63;;;17.90;99.90;;;;;;5006558;28;25044;-73
2022/06/08 07:06:34;;;;;;;10.73;6.18;;;17.90;99.90;;;;;;5008111;28;25101;-72
2022/06/08 07:08:59;;;;;;;10.85;6.40;;;17.70;99.90;;;;;;5018556;28;25126;-72
2022/06/08 07:11:40;;;;;;;14.13;6.50;;;17.70;99.90;;;;;;5018745;28;25084;-74
2022/06/08 07:14:10;;;;;;;7.38;5.70;;;17.80;99.90;;;;;;5006336;28;25093;-73
2022/06/08 07:16:36;;;;;;;7.82;5.43;;;17.90;99.90;;;;;;5004845;28;25065;-75
2022/06/08 07:19:02;;;;;;;13.15;6.25;;;17.80;99.90;;;;;;5011212;28;25082;-74
2022/06/08 07:21:28;;;;;;;9.20;5.78;;;17.80;99.90;;;;;;5004870;28;25065;-72
2022/06/08 07:23:55;;;;;;;9.65;5.70;;;17.80;99.90;;;;;;5014543;28;25081;-75
2022/06/08 07:26:24;;;;;;;11.85;5.63;;;17.60;99.90;;;;;;5009562;28;25072;-72
2022/06/08 07:28:52;;;;;;;9.30;5.38;;;17.80;99.90;;;;;;5019481;28;25061;-74
2022/06/08 07:31:18;;;;;;;9.32;5.40;;;17.80;99.90;;;;;;5012332;28;25059;-76
2022/06/08 07:33:44;;;;;;;10.38;5.68;;;18.20;99.90;;;;;;5004428;28;25068;-74
2022/06/08 07:36:09;;;;;;;13.02;5.20;;;18.10;99.90;;;;;;5010137;28;25071;-73
2022/06/08 07:38:35;;;;;;;7.47;4.50;;;18.20;99.90;;;;;;5002546;28;25068;-73
2022/06/08 07:41:00;;;;;;;9.70;5.57;;;18.50;99.90;;;;;;5007679;28;25062;-76
2022/06/08 07:43:26;;;;;;;11.55;5.82;;;18.60;99.90;;;;;;5003410;28;25127;-72
2022/06/08 07:45:52;;;;;;;8.45;6.20;;;18.40;99.90;;;;;;5006751;28;25066;-74
2022/06/08 07:51:02;;;;;;;13.10;6.22;;;18.20;99.90;;;;;;5010264;28;25111;-75
2022/06/08 07:53:28;;;;;;;9.15;5.88;;;18.20;99.90;;;;;;5006899;28;25108;-76
2022/06/08 07:55:53;;;;;;;11.63;6.57;;;18.30;99.90;;;;;;5007949;28;25063;-75
2022/06/08 07:58:19;;;;;;;11.63;7.22;;;18.40;99.90;;;;;;5009035;28;25053;-76
2022/06/08 08:00:48;;;;;;;13.85;7.15;;;18.50;99.90;;;;;;5020278;28;25159;-74
2022/06/08 08:03:17;;;;;;;15.10;7.95;;;18.30;99.90;;;;;;5012506;28;25068;-75
2022/06/08 08:05:44;;;;;;;16.48;8.10;;;18.10;99.90;;;;;;5012824;28;25075;-73
2022/06/08 08:08:10;;;;;;;12.10;7.40;;;18.00;99.90;;;;;;5008060;28;25079;-73
2022/06/08 08:10:36;;;;;;;12.07;7.35;;;18.20;99.90;;;;;;5012189;28;25050;-73
2022/06/08 08:13:02;;;;;;;11.68;8.27;;;18.40;99.90;;;;;;5010031;28;25084;-72
2022/06/08 08:15:28;;;;;;;8.07;6.85;;;18.50;99.90;;;;;;5022166;28;25053;-73
2022/06/08 08:17:55;;;;;;;11.55;7.68;;;18.70;99.90;;;;;;5007307;28;25068;-74
2022/06/08 08:20:21;;;;;;;13.95;7.25;;;18.70;99.90;;;;;;5005706;28;25055;-74
2022/06/08 08:22:47;;;;;;;8.18;7.03;;;18.50;99.90;;;;;;5010346;28;25068;-78
2022/06/08 08:25:15;;;;;;;12.95;7.78;;;18.50;99.90;;;;;;5010573;28;25056;-73
2022/06/08 08:27:41;;;;;;;8.90;7.32;;;18.60;99.90;;;;;;5012398;28;25119;-72
2022/06/08 08:30:07;;;;;;;10.80;6.25;;;18.70;99.90;;;;;;5011926;28;25083;-76
2022/06/08 08:32:33;;;;;;;9.30;6.28;;;18.60;99.90;;;;;;5010616;28;25064;-77
2022/06/08 08:34:58;;;;;;;14.73;5.38;;;18.50;99.90;;;;;;5010640;28;25067;-75
2022/06/08 08:37:24;;;;;;;7.97;5.82;;;18.50;99.90;;;;;;5005356;28;25150;-74
2022/06/08 08:39:50;;;;;;;9.07;5.80;;;18.60;99.90;;;;;;5012930;28;25113;-74
2022/06/08 08:42:20;;;;;;;12.38;5.85;;;18.60;99.90;;;;;;5016829;28;25048;-74
2022/06/08 08:45:11;;;;;;;10.27;5.25;;;18.60;99.90;;;;;;5011549;28;25071;-73
2022/06/08 08:48:00;;;;;;;10.38;5.07;;;18.50;99.90;;;;;;5012253;28;25098;-73
2022/06/08 08:50:36;;;;;;;13.48;5.30;;;18.40;99.90;;;;;;5020943;28;25112;-74
2022/06/08 08:53:30;;;;;;;10.93;5.30;;;18.40;99.90;;;;;;5014038;28;25123;-75
2022/06/08 08:56:12;;;;;;;10.73;6.78;;;18.40;99.90;;;;;;5008054;28;25067;-72
2022/06/08 08:58:42;;;;;;;15.52;8.32;;;18.30;99.90;;;;;;5006086;28;25110;-74
2022/06/08 09:01:20;;;;;;;14.48;8.63;;;18.20;99.90;;;;;;5013073;28;25066;-71
2022/06/08 09:03:48;;;;;;;15.07;8.10;;;18.10;99.90;;;;;;5014484;28;25093;-73
2022/06/08 09:06:16;;;;;;;11.50;7.22;;;18.20;99.90;;;;;;5032947;28;25062;-75
2022/06/08 09:08:44;;;;;;;17.35;6.13;;;18.10;99.90;;;;;;5033345;28;25113;-78
2022/06/08 09:11:14;;;;;;;9.10;4.97;;;18.00;99.90;;;;;;5019625;28;25068;-74
2022/06/08 09:13:52;;;;;;;7.93;4.25;;;18.00;99.90;;;;;;5012563;28;25079;-75
2022/06/08 09:16:39;;;;;;;12.13;4.05;;;18.10;99.90;;;;;;5002367;28;25099;-73
2022/06/08 09:19:32;;;;;;;17.23;3.70;;;18.00;99.90;;;;;;5003987;28;25073;-74
2022/06/08 09:22:23;;;;;;;9.07;2.00;;;18.00;99.90;;;;;;5003425;28;25058;-74
2022/06/08 09:24:54;;;;;;;6.63;2.47;;;17.70;99.90;;;;;;5008035;28;25175;-75
2022/06/08 09:27:30;;;;;;;5.45;2.75;;;17.60;99.90;;;;;;5025479;28;25100;-73
2022/06/08 09:29:58;;;;;;;8.77;2.75;;;17.60;99.90;;;;;;5011571;28;25146;-73
2022/06/08 09:32:39;;;;;;;10.55;2.40;;;17.60;99.90;;;;;;5015149;28;25141;-73
2022/06/08 09:35:18;;;;;;;8.00;2.42;;;17.60;99.90;;;;;;5005827;28;25066;-75
2022/06/08 09:37:45;;;;;;;10.55;2.50;;;17.60;99.90;;;;;;5011087;28;25053;-75
2022/06/08 09:40:36;;;;;;;7.82;2.80;;;17.50;99.90;;;;;;5018414;28;25113;-76
2022/06/08 09:43:23;;;;;;;7.88;2.65;;;17.20;99.90;;;;;;5017677;28;25150;-76
2022/06/08 09:45:52;;;;;;;10.57;3.08;;;17.20;99.90;;;;;;5009365;28;25047;-74
2022/06/08 09:51:31;;;;;;;6.75;3.25;;;16.90;99.90;;;;;;5013932;28;25068;-75
2022/06/08 09:53:59;;;;;;;10.25;3.95;;;16.80;99.90;;;;;;5016319;28;25076;-75
2022/06/08 09:56:52;;;;;;;11.43;3.60;;;16.80;99.90;;;;;;5016675;28;25070;-76
2022/06/08 09:59:53;;;;;;;11.07;4.00;;;16.80;99.90;;;;;;5022274;28;25094;-76
2022/06/08 10:02:34;;;;;;;10.70;4.05;;;17.00;99.90;;;;;;5012180;28;25113;-74
2022/06/08 10:05:10;;;;;;;17.10;4.82;;;16.70;99.90;;;;;;5017692;28;25104;-75
2022/06/08 10:08:09;;;;;;;13.75;4.70;;;16.70;99.90;;;;;;5019381;28;25056;-75
2022/06/08 10:10:49;;;;;;;11.82;4.85;;;16.70;99.90;;;;;;5019773;28;25073;-76
2022/06/08 10:13:20;;;;;;;14.05;5.63;;;16.60;99.90;;;;;;5021813;28;25057;-75
2022/06/08 10:15:51;;;;;;;13.52;5.82;;;16.70;99.90;;;;;;5018304;28;25134;-76
2022/06/08 10:18:22;;;;;;;13.25;5.78;;;16.60;99.90;;;;;;5021558;28;25061;-79
2022/06/08 10:20:55;;;;;;;16.55;6.18;;;16.80;99.90;;;;;;5023550;28;25126;-75
2022/06/08 10:23:35;;;;;;;15.20;6.53;;;16.60;99.90;;;;;;5028868;28;25065;-74
2022/06/08 10:26:12;;;;;;;11.90;6.20;;;16.40;99.90;;;;;;5012526;28;25061;-75
2022/06/08 10:28:44;;;;;;;12.32;6.47;;;16.40;99.90;;;;;;5020449;28;25056;-75
2022/06/08 10:31:19;;;;;;;10.67;5.60;;;16.20;99.90;;;;;;5005416;28;25145;-75
2022/06/08 10:33:49;;;;;;;12.32;6.38;;;16.10;99.90;;;;;;5018720;28;25056;-75
2022/06/08 10:36:15;;;;;;;12.20;7.20;;;16.00;99.90;;;;;;5017205;28;25062;-76
2022/06/08 10:38:42;;;;;;;10.57;5.93;;;16.10;99.90;;;;;;5021373;28;25061;-76
2022/06/08 10:44:03;;;;;;;18.63;6.90;;;16.00;99.90;;;;;;5020155;28;25081;-77
2022/06/08 10:46:32;;;;;;;14.77;6.80;;;16.00;99.90;;;;;;5015781;28;25051;-76
2022/06/08 10:48:58;;;;;;;14.70;6.25;;;16.20;99.90;;;;;;5008410;28;25073;-78
2022/06/08 10:51:32;;;;;;;15.00;5.50;;;16.20;99.90;;;;;;5012278;28;25107;-76
2022/06/08 10:56:42;;;;;;;8.43;3.10;;;15.90;99.90;;;;;;5021967;28;25060;-77
2022/06/08 10:59:15;;;;;;;8.90;3.50;;;15.70;99.90;;;;;;5012332;28;25122;-76
2022/06/08 11:01:53;;;;;;;9.73;4.22;;;15.50;99.90;;;;;;5035937;28;25105;-75
2022/06/08 11:04:34;;;;;;;11.15;3.83;;;15.60;99.90;;;;;;5045564;28;25055;-78
2022/06/08 11:07:03;;;;;;;10.77;4.25;;;15.50;99.90;;;;;;5024762;28;25078;-77
2022/06/08 11:09:34;;;;;;;13.93;4.80;;;15.60;99.90;;;;;;5039938;28;25053;-78
2022/06/08 11:12:05;;;;;;;9.00;3.50;;;15.40;99.90;;;;;;5018843;28;25072;-77
2022/06/08 11:14:51;;;;;;;10.23;3.80;;;15.40;99.90;;;;;;5024139;28;25075;-76
2022/06/08 11:17:35;;;;;;;9.88;4.40;;;15.50;99.90;;;;;;5035098;28;25091;-76
2022/06/08 11:20:19;;;;;;;11.02;4.22;;;15.40;99.90;;;;;;5025492;28;25065;-78
2022/06/08 11:23:12;;;;;;;14.18;4.20;;;15.60;99.90;;;;;;5031648;28;25118;-77
2022/06/08 11:25:58;;;;;;;13.07;4.68;;;15.70;99.90;;;;;;5042356;28;25060;-77
2022/06/08 11:28:26;;;;;;;13.55;4.78;;;15.50;99.90;;;;;;5047788;28;25078;-76
2022/06/08 11:30:54;;;;;;;20.80;5.18;;;15.80;99.90;;;;;;5034957;28;25055;-77
2022/06/08 11:33:21;;;;;;;11.20;5.45;;;15.70;99.90;;;;;;5031206;28;25113;-76
2022/06/08 11:36:08;;;;;;;9.13;5.32;;;15.70;99.90;;;;;;5017972;28;25078;-76
2022/06/08 11:38:54;;;;;;;17.35;5.50;;;15.70;99.90;;;;;;5008055;28;25154;-75
2022/06/08 11:41:20;;;;;;;18.17;6.22;;;15.60;99.90;;;;;;5012002;28;25061;-77
2022/06/08 11:43:47;;;;;;;13.73;5.93;;;15.80;99.90;;;;;;5008896;28;25058;-76
2022/06/08 11:46:25;;;;;;;14.98;6.05;;;16.00;99.90;;;;;;5015818;28;25061;-76
2022/06/08 11:48:52;;;;;;;13.10;6.45;;;15.90;99.90;;;;;;5009333;28;25061;-76
2022/06/08 11:51:32;;;;;;;17.05;6.78;;;15.80;99.90;;;;;;5011180;28;25059;-76
2022/06/08 11:53:59;;;;;;;13.55;6.15;;;15.70;99.90;;;;;;5005274;28;25076;-77
2022/06/08 11:56:25;;;;;;;14.32;6.95;;;15.80;99.90;;;;;;5012994;28;25067;-76
2022/06/08 11:59:00;;;;;;;12.55;7.20;;;15.90;99.90;;;;;;5031565;28;25054;-76
2022/06/08 12:01:49;;;;;;;15.05;6.63;;;15.80;99.90;;;;;;5015342;28;25069;-75
2022/06/08 12:04:20;;;;;;;17.80;6.85;;;15.90;99.90;;;;;;5018449;28;25053;-75
2022/06/08 12:06:47;;;;;;;11.40;6.78;;;16.00;99.90;;;;;;5019357;28;25102;-76
2022/06/08 12:09:23;;;;;;;9.65;6.03;;;16.00;99.90;;;;;;5024678;28;25104;-77
2022/06/08 12:11:55;;;;;;;10.77;6.63;;;16.00;99.90;;;;;;5016630;28;25078;-73
2022/06/08 12:14:35;;;;;;;12.15;6.70;;;16.10;99.90;;;;;;5017433;28;25085;-76
2022/06/08 12:17:32;;;;;;;13.82;6.80;;;16.10;99.90;;;;;;5024432;28;25131;-73
2022/06/08 12:19:58;;;;;;;13.32;6.97;;;16.40;99.90;;;;;;5024862;28;25070;-74
2022/06/08 12:22:35;;;;;;;12.05;7.10;;;16.40;99.90;;;;;;5025608;28;25131;-76
2022/06/08 12:25:10;;;;;;;9.15;6.68;;;16.30;99.90;;;;;;5021458;28;25075;-75
2022/06/08 12:27:52;;;;;;;11.23;6.28;;;16.20;99.90;;;;;;5033757;28;25074;-75
2022/06/08 12:30:29;;;;;;;17.30;7.55;;;16.00;99.90;;;;;;5032863;28;25071;-74
2022/06/08 12:33:01;;;;;;;10.60;6.20;;;16.20;99.90;;;;;;5026392;28;25087;-75
2022/06/08 12:35:41;;;;;;;12.07;6.65;;;16.20;99.90;;;;;;5029542;28;25050;-75
2022/06/08 12:38:20;;;;;;;12.88;8.18;;;16.30;99.90;;;;;;5023589;28;25139;-75
2022/06/08 12:41:10;;;;;;;19.15;7.55;;;16.40;99.90;;;;;;5028734;28;25075;-76
2022/06/08 12:43:48;;;;;;;16.73;8.90;;;16.40;99.90;;;;;;5017978;28;25070;-75
2022/06/08 12:46:13;;;;;;;11.23;6.65;;;16.60;99.90;;;;;;5028073;28;25061;-75
2022/06/08 12:48:42;;;;;;;11.63;7.75;;;16.80;99.90;;;;;;5031187;28;25108;-74
2022/06/08 12:51:40;;;;;;;12.13;8.00;;;16.80;99.90;;;;;;5027559;28;25069;-75
2022/06/08 12:54:23;;;;;;;8.77;6.68;;;16.60;99.90;;;;;;5020161;28;25066;-76
2022/06/08 12:56:52;;;;;;;12.43;7.43;;;16.40;99.90;;;;;;5033874;28;25097;-75
2022/06/08 12:59:19;;;;;;;11.65;6.40;;;16.50;99.90;;;;;;5026448;28;25067;-76
2022/06/08 13:01:46;;;;;;;13.93;8.30;;;16.50;99.90;;;;;;5036268;28;25105;-76
2022/06/08 13:04:15;;;;;;;13.52;8.15;;;16.30;99.90;;;;;;5017978;28;25104;-76
2022/06/08 13:06:41;;;;;;;9.95;8.75;;;16.20;99.90;;;;;;5021945;28;25077;-75
2022/06/08 13:09:11;;;;;;;10.02;7.65;;;16.40;99.90;;;;;;5012446;28;25123;-75
2022/06/08 13:11:36;;;;;;;12.32;8.77;;;16.40;99.90;;;;;;5012774;28;25068;-76